チャーチル の空港の天気 - METARとTAF

チャーチル空港 ( CYYQ / YYQ ) - カナダ マニトバ州Churchill
飛行場実況気象(Metar)
観測時間07/16 01:00 CDT (07/16 06:00 UTC)
風向・風速北北東 4m/s
視程10km以上
天気現象
少しの雲 雲底高度 300m
全天の4割程度の雲 雲底高度 7620m
気温7℃
湿度93%
気圧1013.5hPa
METARCYYQ 160600Z 02007KT 15SM FEW010 SCT250 07/06 A2992 RMK CF1CI2 SLP135
過去の天気等 Google飛行場航空写真 Wunderground天気予報

過去48時間のMETAR

飛行場予報(TAF)
発表時間: 7/16 00:39 CDT (7/16 05:39 UTC)
予報対象時間: 16日1時 CDT ~ 17日1時 CDT
風向・風速北北東 4m/s
視程10km以上
少しの雲 雲底高度 300m
全天の4割程度の雲 雲底高度 7320m
16日3時 CDT ~ 16日5時 CDT に徐々に
風向・風速北北西 5m/s
16日10時 CDT から
風向・風速西 5m/s
視程10km以上
なし
16日13時 CDT ~ 16日15時 CDT に徐々に
風向・風速南南西 5m/s
TAF CYYQ 160539Z 1606/1706 02008KT P6SM FEW010 SCT240
BECMG 1608/1610 33010KT
FM161500 28010KT P6SM SKC
BECMG 1618/1620 21010KT RMK NXT FCST BY 161200Z